Time;durP1;ratioP1;P1;durP2;ratioP2;P2;SDS_P1;SDS_P2;PMS_P1;PMS_P2;Temp;Humidity;BMP_temperature;BMP_pressure;BME280_temperature;BME280_humidity;BME280_pressure;Samples;Min_cycle;Max_cycle;Signal;HPM_P1;HPM_P2
2021/08/24 00:00:24;;;;;;;5.30;4.80;;;14.40;99.90;;;;;;6183312;23;20452;-94
2021/08/24 00:02:51;;;;;;;5.60;5.10;;;;;;;;;;6183644;23;20420;-93
2021/08/24 00:05:22;;;;;;;5.80;5.30;;;14.50;99.90;;;;;;6188415;23;20715;-93
2021/08/24 00:07:49;;;;;;;5.37;4.93;;;;;;;;;;6188349;23;20443;-92
2021/08/24 00:10:17;;;;;;;8.10;5.17;;;14.50;99.90;;;;;;6187342;23;20423;-94
2021/08/24 00:12:44;;;;;;;6.43;5.60;;;;;;;;;;6183657;23;20423;-94
2021/08/24 00:15:13;;;;;;;6.50;5.73;;;;;;;;;;6188602;23;20396;-93
2021/08/24 00:17:41;;;;;;;5.57;5.07;;;;;;;;;;6188474;23;20400;-92
2021/08/24 00:20:09;;;;;;;5.67;5.17;;;14.50;99.90;;;;;;6179941;23;20427;-93
2021/08/24 00:22:37;;;;;;;6.17;5.57;;;;;;;;;;6176252;23;20431;-94
2021/08/24 00:25:05;;;;;;;6.00;5.47;;;14.50;99.90;;;;;;6187573;23;20463;-94
2021/08/24 00:27:32;;;;;;;7.33;5.53;;;;;;;;;;6188294;23;20462;-93
2021/08/24 00:30:00;;;;;;;8.00;5.50;;;;;;;;;;6188409;23;20404;-92
2021/08/24 00:32:29;;;;;;;6.60;5.90;;;;;;;;;;6182394;23;20873;-93
2021/08/24 00:34:57;;;;;;;10.30;6.00;;;;;;;;;;6183729;23;20403;-93
2021/08/24 00:37:24;;;;;;;6.80;5.33;;;;;;;;;;6183552;23;20464;-95
2021/08/24 00:39:51;;;;;;;7.87;5.63;;;;;;;;;;6182322;23;20868;-92
2021/08/24 00:42:18;;;;;;;6.33;5.73;;;;;;;;;;6183423;23;20408;-93
2021/08/24 00:44:47;;;;;;;6.53;5.93;;;14.50;99.90;;;;;;6182320;23;20389;-93
2021/08/24 00:47:15;;;;;;;7.60;5.87;;;14.50;99.90;;;;;;6183221;23;20506;-93
2021/08/24 00:49:46;;;;;;;7.20;6.50;;;14.50;99.90;;;;;;6183203;23;20412;-95
2021/08/24 00:52:17;;;;;;;9.90;7.17;;;14.50;99.90;;;;;;6188010;23;20455;-94
2021/08/24 00:54:45;;;;;;;11.03;6.60;;;14.50;99.90;;;;;;6187720;23;20392;-92
2021/08/24 00:57:15;;;;;;;7.10;6.40;;;14.50;99.90;;;;;;6187938;23;20404;-93
2021/08/24 00:59:43;;;;;;;7.37;6.67;;;;;;;;;;6183718;23;20443;-93
2021/08/24 01:02:10;;;;;;;6.90;6.20;;;;;;;;;;6187746;23;20393;-93
2021/08/24 01:04:38;;;;;;;7.70;7.00;;;;;;;;;;6183096;23;20411;-93
2021/08/24 01:07:10;;;;;;;10.00;7.40;;;14.40;99.90;;;;;;6187866;23;20467;-94
2021/08/24 01:09:45;;;;;;;8.00;6.93;;;14.40;99.90;;;;;;6187639;23;20389;-94
2021/08/24 01:12:22;;;;;;;14.30;6.17;;;14.40;99.90;;;;;;6187758;23;20403;-92
2021/08/24 01:14:58;;;;;;;8.33;6.70;;;14.40;99.90;;;;;;6109372;23;20892;-94
2021/08/24 01:17:29;;;;;;;6.53;5.93;;;14.30;99.90;;;;;;6180224;23;20441;-94
2021/08/24 01:20:19;;;;;;;7.80;7.00;;;14.30;99.90;;;;;;6187305;23;20439;-93
2021/08/24 01:23:18;;;;;;;7.17;6.47;;;14.20;99.90;;;;;;6175807;23;20447;-93
2021/08/24 01:25:54;;;;;;;7.60;6.80;;;14.30;99.90;;;;;;6186728;23;20392;-93
2021/08/24 01:28:30;;;;;;;6.73;6.07;;;14.20;99.90;;;;;;6179714;23;20423;-93
2021/08/24 01:31:42;;;;;;;6.63;5.90;;;14.20;99.90;;;;;;6182893;23;20408;-93
2021/08/24 01:34:23;;;;;;;7.07;6.37;;;14.10;99.90;;;;;;6117972;23;20428;-93
2021/08/24 01:36:57;;;;;;;6.67;5.97;;;14.10;99.90;;;;;;6176033;23;20507;-93
2021/08/24 01:39:26;;;;;;;6.03;4.67;;;14.00;99.90;;;;;;6180000;23;20408;-93
2021/08/24 01:42:07;;;;;;;5.60;5.10;;;14.00;99.90;;;;;;6181790;23;20416;-94
2021/08/24 01:44:42;;;;;;;5.97;5.43;;;13.90;99.90;;;;;;6187274;23;20448;-94
2021/08/24 01:47:14;;;;;;;8.20;4.97;;;13.90;99.90;;;;;;6181016;23;20502;-94
2021/08/24 01:49:44;;;;;;;5.17;4.67;;;13.80;99.90;;;;;;6175580;23;20388;-92
2021/08/24 01:52:19;;;;;;;5.33;4.83;;;13.80;99.90;;;;;;6182527;23;20412;-94
2021/08/24 01:54:50;;;;;;;9.07;5.13;;;13.80;99.90;;;;;;6182076;23;20392;-93
2021/08/24 01:57:21;;;;;;;6.60;4.07;;;13.70;99.90;;;;;;6182679;23;20412;-93
2021/08/24 01:59:52;;;;;;;6.20;4.90;;;13.60;99.90;;;;;;6187246;23;20462;-93
2021/08/24 02:02:25;;;;;;;6.63;4.47;;;13.70;99.90;;;;;;6187385;23;20400;-92
2021/08/24 02:04:58;;;;;;;7.17;5.50;;;13.60;99.90;;;;;;6187429;23;20459;-92
2021/08/24 02:07:30;;;;;;;5.90;4.30;;;13.60;99.90;;;;;;6178296;23;20451;-92
2021/08/24 02:10:01;;;;;;;6.13;4.70;;;13.50;99.90;;;;;;6186037;23;20393;-92
2021/08/24 02:12:33;;;;;;;5.37;4.07;;;13.50;99.90;;;;;;6186940;23;20773;-92
2021/08/24 02:15:01;;;;;;;8.97;4.37;;;13.40;99.90;;;;;;6172433;23;20416;-92
2021/08/24 02:17:32;;;;;;;6.53;4.40;;;13.40;99.90;;;;;;6187130;23;20884;-94
2021/08/24 02:20:05;;;;;;;7.47;4.53;;;13.40;99.90;;;;;;6187082;23;20438;-95
2021/08/24 02:22:36;;;;;;;4.80;4.00;;;13.40;99.90;;;;;;6182566;23;20748;-91
2021/08/24 02:25:08;;;;;;;5.67;4.67;;;13.30;99.90;;;;;;6186165;23;20401;-92
2021/08/24 02:27:40;;;;;;;6.63;4.00;;;13.30;99.90;;;;;;6181714;23;20444;-94
2021/08/24 02:30:08;;;;;;;6.50;3.90;;;;;;;;;;6187074;23;20392;-92
2021/08/24 02:32:40;;;;;;;6.30;3.87;;;13.30;99.90;;;;;;6187120;23;20697;-93
2021/08/24 02:35:13;;;;;;;4.63;4.23;;;13.30;99.90;;;;;;6135565;23;20405;-92
2021/08/24 02:37:49;;;;;;;7.20;3.80;;;13.20;99.90;;;;;;6182214;23;20396;-92
2021/08/24 02:40:21;;;;;;;6.90;4.50;;;13.30;99.90;;;;;;6185912;23;20452;-92
2021/08/24 02:42:54;;;;;;;3.80;3.50;;;13.20;99.90;;;;;;6179306;23;20404;-93
2021/08/24 02:45:27;;;;;;;3.83;3.53;;;13.20;99.90;;;;;;6067162;23;20414;-92
2021/08/24 02:47:56;;;;;;;3.73;3.43;;;13.10;99.90;;;;;;6063112;23;20484;-92
2021/08/24 02:50:24;;;;;;;4.50;4.07;;;13.10;99.90;;;;;;6096010;23;20411;-93
2021/08/24 02:52:54;;;;;;;3.90;3.60;;;13.00;99.90;;;;;;6088130;23;20426;-91
2021/08/24 02:55:22;;;;;;;3.50;3.20;;;;;;;;;;6095281;23;20396;-93
2021/08/24 02:57:49;;;;;;;4.30;3.90;;;;;;;;;;6095853;23;20827;-92
2021/08/24 03:00:17;;;;;;;5.17;3.97;;;;;;;;;;6095865;23;20431;-92
2021/08/24 03:02:44;;;;;;;4.40;4.00;;;;;;;;;;6111681;23;20405;-94
2021/08/24 03:05:11;;;;;;;4.93;3.47;;;12.70;99.90;;;;;;6182248;23;20389;-91
2021/08/24 03:07:39;;;;;;;3.93;3.10;;;12.60;99.90;;;;;;6135358;23;20452;-91
2021/08/24 03:10:12;;;;;;;7.03;3.43;;;12.50;99.90;;;;;;6186074;23;20399;-92
2021/08/24 03:12:43;;;;;;;3.77;3.00;;;12.50;99.90;;;;;;6181863;23;20408;-93
2021/08/24 03:15:16;;;;;;;5.20;3.70;;;12.50;99.90;;;;;;6135547;23;20415;-95
2021/08/24 03:17:49;;;;;;;7.33;4.03;;;12.40;99.90;;;;;;6186757;23;20405;-92
2021/08/24 03:20:17;;;;;;;3.90;3.50;;;12.40;99.90;;;;;;6186563;23;20404;-91
2021/08/24 03:22:46;;;;;;;7.53;3.93;;;12.30;99.90;;;;;;6182302;23;20419;-91
2021/08/24 03:25:16;;;;;;;4.53;4.13;;;12.30;99.90;;;;;;6094647;23;20425;-93
2021/08/24 03:27:45;;;;;;;5.50;4.20;;;12.20;99.90;;;;;;6092175;23;20446;-93
2021/08/24 03:30:15;;;;;;;4.87;4.37;;;12.20;99.90;;;;;;6097858;23;20411;-93
2021/08/24 03:32:42;;;;;;;5.47;4.17;;;;;;;;;;6097827;23;20454;-95
2021/08/24 03:35:10;;;;;;;4.07;3.67;;;12.10;99.90;;;;;;6098016;23;20406;-91
2021/08/24 03:37:37;;;;;;;4.40;4.00;;;;;;;;;;6098147;23;20568;-92
2021/08/24 03:40:07;;;;;;;5.87;3.63;;;11.90;99.90;;;;;;6091453;23;20816;-93
2021/08/24 03:42:36;;;;;;;4.00;3.63;;;11.90;99.90;;;;;;6113123;23;20409;-95
2021/08/24 03:45:03;;;;;;;7.53;4.10;;;;;;;;;;6184310;23;20392;-92
2021/08/24 03:47:30;;;;;;;5.70;4.20;;;;;;;;;;6188469;23;20443;-92
2021/08/24 03:49:57;;;;;;;5.33;4.10;;;;;;;;;;6188811;23;20709;-93
2021/08/24 03:52:24;;;;;;;5.07;4.13;;;;;;;;;;6188639;23;20388;-92
2021/08/24 03:54:51;;;;;;;7.80;3.67;;;;;;;;;;6187918;23;20388;-93
2021/08/24 03:57:19;;;;;;;5.73;4.20;;;;;;;;;;6188817;23;20415;-92
2021/08/24 03:59:48;;;;;;;5.03;3.80;;;;;;;;;;6188379;23;20955;-92
2021/08/24 04:02:15;;;;;;;4.43;4.00;;;;;;;;;;6180505;23;20384;-92
2021/08/24 04:04:42;;;;;;;4.73;4.20;;;;;;;;;;6183903;23;20443;-93
2021/08/24 04:07:09;;;;;;;5.20;4.10;;;;;;;;;;6188560;23;20432;-93
2021/08/24 04:09:36;;;;;;;6.83;4.27;;;;;;;;;;6188612;23;20403;-91
2021/08/24 04:12:04;;;;;;;5.10;4.60;;;;;;;;;;6187751;23;20388;-94
2021/08/24 04:14:31;;;;;;;8.17;4.77;;;;;;;;;;6182612;23;20393;-93
2021/08/24 04:17:00;;;;;;;9.43;4.63;;;;;;;;;;6185022;23;20888;-92
2021/08/24 04:19:27;;;;;;;4.97;4.57;;;;;;;;;;6188511;23;20428;-93
2021/08/24 04:21:54;;;;;;;5.70;4.53;;;;;;;;;;6188202;23;20399;-93
2021/08/24 04:24:21;;;;;;;5.50;4.33;;;;;;;;;;6188631;23;20888;-92
2021/08/24 04:26:48;;;;;;;4.70;4.00;;;;;;;;;;6182200;23;20408;-93
2021/08/24 04:29:15;;;;;;;5.53;5.03;;;;;;;;;;6188169;23;20444;-93
2021/08/24 04:31:42;;;;;;;5.87;5.37;;;;;;;;;;6185405;23;20438;-92
2021/08/24 04:34:11;;;;;;;5.63;5.13;;;11.20;99.90;;;;;;6191734;23;20392;-91
2021/08/24 04:36:38;;;;;;;8.70;6.20;;;;;;;;;;6185339;23;20395;-93
2021/08/24 04:39:05;;;;;;;6.57;5.50;;;;;;;;;;6189413;23;20391;-92
2021/08/24 04:41:32;;;;;;;6.70;5.47;;;;;;;;;;6187565;23;20891;-92
2021/08/24 04:44:00;;;;;;;6.07;5.47;;;11.20;99.90;;;;;;6190734;23;20431;-92
2021/08/24 04:46:27;;;;;;;6.80;5.40;;;;;;;;;;6190546;23;20408;-93
2021/08/24 04:48:54;;;;;;;5.67;4.70;;;;;;;;;;6193421;23;20454;-94
2021/08/24 04:51:23;;;;;;;8.43;5.03;;;;;;;;;;6186693;23;20392;-92
2021/08/24 04:53:50;;;;;;;5.03;4.63;;;;;;;;;;6191536;23;20597;-92
2021/08/24 04:56:17;;;;;;;5.43;4.93;;;;;;;;;;6197514;23;20403;-91
2021/08/24 04:58:45;;;;;;;6.43;5.03;;;;;;;;;;6192797;23;20396;-91
2021/08/24 05:01:12;;;;;;;7.50;5.80;;;;;;;;;;6186484;23;20388;-94
2021/08/24 05:03:39;;;;;;;7.13;5.80;;;;;;;;;;6188463;23;20869;-92
2021/08/24 05:06:06;;;;;;;6.23;5.13;;;;;;;;;;6182396;23;20395;-93
2021/08/24 05:08:34;;;;;;;6.40;5.13;;;11.20;99.90;;;;;;6183332;23;20944;-93
2021/08/24 05:11:01;;;;;;;8.70;5.50;;;;;;;;;;6179500;23;20401;-92
2021/08/24 05:13:28;;;;;;;7.10;6.40;;;;;;;;;;6182871;23;20412;-93
2021/08/24 05:15:55;;;;;;;6.80;6.10;;;;;;;;;;6177473;23;20396;-92
2021/08/24 05:18:23;;;;;;;9.30;6.20;;;;;;;;;;6181503;23;20428;-93
2021/08/24 05:20:50;;;;;;;6.40;5.80;;;;;;;;;;6187525;23;20389;-93
2021/08/24 05:23:17;;;;;;;8.40;7.00;;;;;;;;;;6181749;23;20391;-93
2021/08/24 05:25:47;;;;;;;6.63;6.00;;;11.60;99.90;;;;;;6187061;23;20404;-93
2021/08/24 05:28:14;;;;;;;8.30;6.37;;;;;;;;;;6181987;23;20477;-94
2021/08/24 05:30:41;;;;;;;6.67;5.93;;;;;;;;;;6187265;23;20409;-93
2021/08/24 05:33:08;;;;;;;6.63;5.93;;;;;;;;;;6187665;23;20457;-93
2021/08/24 05:35:35;;;;;;;6.33;5.73;;;;;;;;;;6187090;23;20396;-93
2021/08/24 05:38:02;;;;;;;8.00;5.50;;;;;;;;;;6187262;23;20411;-93
2021/08/24 05:40:30;;;;;;;7.20;5.83;;;;;;;;;;6186768;23;20423;-93
2021/08/24 05:42:58;;;;;;;5.73;5.20;;;12.00;99.90;;;;;;6182675;23;20423;-94
2021/08/24 05:45:25;;;;;;;8.43;6.47;;;;;;;;;;6186999;23;20439;-92
2021/08/24 05:47:52;;;;;;;7.23;6.53;;;;;;;;;;6187623;23;20432;-93
2021/08/24 05:50:19;;;;;;;7.73;5.80;;;;;;;;;;6187607;23;20468;-93
2021/08/24 05:52:46;;;;;;;11.60;6.10;;;;;;;;;;6177981;23;20416;-94
2021/08/24 05:55:16;;;;;;;7.03;5.80;;;;;;;;;;6182709;23;20421;-93
2021/08/24 05:57:43;;;;;;;7.27;6.57;;;;;;;;;;6189226;23;20438;-91
2021/08/24 06:00:12;;;;;;;6.80;6.10;;;12.50;99.90;;;;;;6182947;23;20475;-93
2021/08/24 06:02:40;;;;;;;8.00;5.63;;;12.50;99.90;;;;;;6187405;23;20403;-91
2021/08/24 06:05:09;;;;;;;6.63;5.93;;;12.60;99.90;;;;;;6187398;23;20420;-92
2021/08/24 06:07:37;;;;;;;7.90;6.33;;;12.70;99.90;;;;;;6187441;23;20459;-91
2021/08/24 06:10:05;;;;;;;9.10;7.67;;;12.90;99.90;;;;;;6186106;23;20396;-93
2021/08/24 06:12:32;;;;;;;9.67;7.37;;;;;;;;;;6187040;23;20396;-92
2021/08/24 06:14:59;;;;;;;7.47;6.67;;;;;;;;;;6187521;23;20861;-90
2021/08/24 06:17:27;;;;;;;6.93;6.23;;;13.20;99.90;;;;;;6181684;23;20432;-91
2021/08/24 06:19:54;;;;;;;6.73;6.13;;;;;;;;;;6173411;23;20396;-94
2021/08/24 06:22:21;;;;;;;6.57;5.87;;;;;;;;;;6186921;23;20405;-91
2021/08/24 06:24:49;;;;;;;6.53;5.90;;;;;;;;;;6183084;23;20397;-90
2021/08/24 06:27:16;;;;;;;9.23;5.60;;;;;;;;;;6180937;23;20416;-92
2021/08/24 06:29:43;;;;;;;6.70;6.10;;;;;;;;;;6186878;23;20436;-94
2021/08/24 06:32:22;;;;;;;5.37;4.87;;;14.40;99.90;;;;;;6180818;23;20761;-90
2021/08/24 06:34:50;;;;;;;6.60;5.20;;;14.40;99.90;;;;;;6186873;23;20396;-91
2021/08/24 06:37:17;;;;;;;6.83;5.50;;;;;;;;;;6186720;23;20393;-90
2021/08/24 06:39:45;;;;;;;5.13;4.63;;;;;;;;;;6187706;23;20400;-90
2021/08/24 06:42:13;;;;;;;6.80;5.30;;;;;;;;;;6185761;23;20393;-90
2021/08/24 06:44:40;;;;;;;7.23;5.00;;;;;;;;;;6180920;23;20406;-91
2021/08/24 06:47:07;;;;;;;6.57;5.90;;;;;;;;;;6186389;23;20396;-89
2021/08/24 06:49:34;;;;;;;6.37;5.33;;;;;;;;;;6179812;23;20443;-89
2021/08/24 06:52:04;;;;;;;5.70;5.10;;;14.30;99.90;;;;;;6186340;23;20400;-91
2021/08/24 06:54:31;;;;;;;8.30;5.80;;;;;;;;;;6186739;23;20476;-90
2021/08/24 06:56:59;;;;;;;7.10;5.53;;;;;;;;;;6180929;23;20435;-91
2021/08/24 06:59:26;;;;;;;7.77;5.00;;;;;;;;;;6188826;23;20439;-91
2021/08/24 07:01:54;;;;;;;5.40;4.63;;;;;;;;;;6189673;23;20396;-93
2021/08/24 07:04:21;;;;;;;8.73;5.20;;;;;;;;;;6187031;23;20408;-89
2021/08/24 07:06:50;;;;;;;7.03;5.90;;;;;;;;;;6186749;23;21020;-91
2021/08/24 07:09:18;;;;;;;6.00;5.30;;;14.40;99.90;;;;;;6186202;23;20456;-91
2021/08/24 07:11:46;;;;;;;6.07;5.40;;;;;;;;;;6180809;23;20401;-91
2021/08/24 07:14:14;;;;;;;6.80;6.07;;;;;;;;;;6181917;23;20475;-92
2021/08/24 07:16:43;;;;;;;10.53;5.63;;;14.40;99.90;;;;;;6186501;23;20463;-91
2021/08/24 07:19:10;;;;;;;5.80;5.30;;;;;;;;;;6182764;23;20509;-91
2021/08/24 07:21:37;;;;;;;5.60;5.10;;;;;;;;;;6187259;23;20407;-91
2021/08/24 07:24:05;;;;;;;8.10;5.90;;;;;;;;;;6188225;23;20397;-91
2021/08/24 07:26:34;;;;;;;5.87;5.37;;;14.60;99.90;;;;;;6191803;23;20707;-90
2021/08/24 07:29:01;;;;;;;6.90;5.33;;;;;;;;;;6183730;23;20443;-90
2021/08/24 07:31:28;;;;;;;7.20;6.50;;;;;;;;;;6171346;23;20446;-89
2021/08/24 07:33:56;;;;;;;7.60;6.20;;;;;;;;;;6172881;23;20477;-92
2021/08/24 07:36:24;;;;;;;9.67;6.37;;;;;;;;;;6219344;23;20949;-92
2021/08/24 07:38:51;;;;;;;6.27;5.47;;;;;;;;;;6219891;23;20406;-93
2021/08/24 07:41:19;;;;;;;6.00;5.23;;;;;;;;;;6217075;23;20414;-91
2021/08/24 07:43:47;;;;;;;6.83;5.80;;;14.50;99.90;;;;;;6219002;23;20412;-91
2021/08/24 07:46:14;;;;;;;8.37;5.70;;;;;;;;;;6222125;23;20938;-92
2021/08/24 07:48:42;;;;;;;6.53;5.83;;;;;;;;;;6223836;23;20454;-92
2021/08/24 07:51:10;;;;;;;7.40;4.80;;;;;;;;;;6172548;23;20466;-90
2021/08/24 07:53:37;;;;;;;5.47;4.97;;;;;;;;;;6217819;23;20396;-92
2021/08/24 07:56:09;;;;;;;9.40;5.60;;;14.80;99.90;;;;;;6216846;23;20418;-93
2021/08/24 07:58:36;;;;;;;9.40;5.03;;;;;;;;;;6217914;23;20414;-93
2021/08/24 08:01:05;;;;;;;8.73;4.60;;;;;;;;;;6218134;23;20391;-90
2021/08/24 08:03:32;;;;;;;4.30;3.73;;;;;;;;;;6217711;23;20395;-90
2021/08/24 08:05:59;;;;;;;4.07;3.67;;;;;;;;;;6212929;23;20415;-90
2021/08/24 08:08:26;;;;;;;4.13;3.73;;;;;;;;;;6218823;23;20435;-89
2021/08/24 08:10:56;;;;;;;4.50;4.10;;;;;;;;;;6218102;23;20399;-90
2021/08/24 08:13:24;;;;;;;5.03;3.87;;;;;;;;;;6224298;23;20896;-92
2021/08/24 08:15:51;;;;;;;4.97;3.77;;;;;;;;;;6223295;23;20400;-91
2021/08/24 08:18:19;;;;;;;5.27;4.10;;;14.40;99.90;;;;;;6217776;23;20442;-92
2021/08/24 08:20:47;;;;;;;5.20;4.00;;;;;;;;;;6211575;23;20447;-93
2021/08/24 08:23:16;;;;;;;6.33;3.40;;;14.60;99.90;;;;;;6159742;23;20397;-93
2021/08/24 08:25:43;;;;;;;5.80;4.40;;;;;;;;;;6158609;23;20413;-92
2021/08/24 08:28:11;;;;;;;4.83;4.00;;;;;;;;;;6160980;23;20405;-90
2021/08/24 08:30:38;;;;;;;14.23;3.90;;;;;;;;;;6160361;23;20405;-92
2021/08/24 08:33:06;;;;;;;4.83;3.60;;;14.90;99.90;;;;;;6161448;23;20402;-92
2021/08/24 08:35:34;;;;;;;3.97;3.57;;;15.40;99.90;;;;;;6161366;23;20401;-92
2021/08/24 08:38:01;;;;;;;8.43;4.10;;;;;;;;;;6123304;23;20905;-93
2021/08/24 08:40:46;;;;;;;3.80;3.47;;;15.50;99.90;;;;;;6160239;23;20893;-91
2021/08/24 08:43:24;;;;;;;4.13;3.57;;;16.10;99.90;;;;;;6102326;23;20422;-92
2021/08/24 08:45:52;;;;;;;4.30;3.60;;;16.40;99.90;;;;;;6094763;23;20426;-95
2021/08/24 08:48:38;;;;;;;4.53;3.70;;;17.10;99.90;;;;;;6096463;23;20411;-92
2021/08/24 08:54:01;;;;;;;5.03;4.43;;;17.90;99.90;;;;;;6177099;23;20435;-91
2021/08/24 08:56:35;;;;;;;4.20;3.80;;;18.20;99.90;;;;;;6181631;23;20493;-92
2021/08/24 08:59:12;;;;;;;7.63;4.60;;;19.30;99.90;;;;;;6194553;23;20403;-93
2021/08/24 09:01:48;;;;;;;4.47;4.07;;;18.90;99.90;;;;;;6194833;23;20408;-91
2021/08/24 09:04:28;;;;;;;5.50;3.90;;;17.80;99.90;;;;;;6181037;23;20827;-93
2021/08/24 09:07:01;;;;;;;6.33;3.93;;;17.10;99.90;;;;;;6188758;23;20392;-91
2021/08/24 09:09:31;;;;;;;5.53;4.13;;;16.50;99.90;;;;;;6191388;23;20438;-93
2021/08/24 09:12:00;;;;;;;7.80;3.97;;;15.90;99.90;;;;;;6186009;23;20892;-91
2021/08/24 09:14:30;;;;;;;5.70;3.77;;;15.80;99.90;;;;;;6190505;23;20396;-91
2021/08/24 09:17:02;;;;;;;4.70;4.20;;;15.90;99.90;;;;;;6200517;23;20427;-91
2021/08/24 09:19:38;;;;;;;5.50;3.83;;;15.80;99.90;;;;;;6224881;23;20395;-93
2021/08/24 09:22:06;;;;;;;5.10;4.60;;;13.80;99.90;;;;;;6226355;23;20395;-91
2021/08/24 09:24:36;;;;;;;5.70;4.87;;;15.40;99.90;;;;;;6227390;23;20399;-92
2021/08/24 09:27:07;;;;;;;4.87;3.73;;;15.50;99.90;;;;;;6235600;23;20396;-92
2021/08/24 09:29:40;;;;;;;5.03;4.03;;;15.40;99.90;;;;;;6228498;23;20502;-92
2021/08/24 09:32:09;;;;;;;5.27;3.83;;;15.40;99.90;;;;;;6219178;23;20395;-91
2021/08/24 09:34:39;;;;;;;4.63;4.10;;;15.60;99.90;;;;;;6224010;23;20467;-92
2021/08/24 09:37:06;;;;;;;5.20;4.70;;;;;;;;;;6218626;23;20394;-93
2021/08/24 09:39:54;;;;;;;5.53;5.03;;;15.40;99.90;;;;;;6217987;23;20395;-93
2021/08/24 09:42:30;;;;;;;4.53;4.13;;;15.30;99.90;;;;;;6222243;23;20490;-91
2021/08/24 09:45:01;;;;;;;6.70;4.70;;;15.10;99.90;;;;;;6212387;23;20391;-91
2021/08/24 09:47:29;;;;;;;6.20;5.10;;;;;;;;;;6210621;23;20445;-94
2021/08/24 09:50:03;;;;;;;5.53;4.27;;;15.50;99.90;;;;;;6222065;23;20439;-93
2021/08/24 09:52:33;;;;;;;5.27;4.63;;;15.60;99.90;;;;;;6213033;23;20415;-92
2021/08/24 09:55:07;;;;;;;5.10;4.53;;;15.50;99.90;;;;;;6214702;23;20443;-92
2021/08/24 09:57:37;;;;;;;7.50;5.80;;;15.70;99.90;;;;;;6219165;23;20442;-90
2021/08/24 10:00:07;;;;;;;4.50;4.10;;;15.80;99.90;;;;;;6208040;23;20419;-91
2021/08/24 10:02:39;;;;;;;5.70;5.10;;;16.10;99.90;;;;;;6208667;23;20422;-91
2021/08/24 10:05:10;;;;;;;5.73;4.37;;;16.30;99.90;;;;;;6213096;23;20423;-90
2021/08/24 10:07:39;;;;;;;4.80;4.40;;;16.00;99.90;;;;;;6218761;23;20395;-91
2021/08/24 10:10:20;;;;;;;6.83;5.23;;;15.90;99.90;;;;;;6212872;23;20510;-93
2021/08/24 10:12:51;;;;;;;6.60;4.97;;;;;;;;;;6217638;23;20391;-91
2021/08/24 10:15:37;;;;;;;4.00;3.57;;;16.80;99.90;;;;;;6211301;23;20445;-90
2021/08/24 10:18:08;;;;;;;5.00;4.50;;;17.00;99.90;;;;;;6213241;23;20411;-90
2021/08/24 10:20:38;;;;;;;4.47;4.07;;;17.10;99.90;;;;;;6214173;23;20477;-91
2021/08/24 10:23:08;;;;;;;4.63;4.13;;;16.60;99.90;;;;;;6214362;23;20444;-91
2021/08/24 10:25:42;;;;;;;4.50;4.10;;;16.70;99.90;;;;;;6212492;23;20392;-89
2021/08/24 10:28:14;;;;;;;6.27;4.23;;;16.60;99.90;;;;;;6214917;23;20399;-92
2021/08/24 10:30:47;;;;;;;6.73;4.47;;;16.70;99.90;;;;;;6213363;23;20457;-91
2021/08/24 10:33:29;;;;;;;6.03;4.47;;;16.50;99.90;;;;;;6218250;23;20478;-91
2021/08/24 10:35:59;;;;;;;7.13;5.30;;;16.70;99.90;;;;;;6218551;23;20473;-91
2021/08/24 10:38:42;;;;;;;6.43;4.50;;;17.70;99.90;;;;;;6212327;23;20418;-90
2021/08/24 10:41:29;;;;;;;5.40;3.90;;;16.30;99.90;;;;;;6207769;23;20395;-90
2021/08/24 10:43:58;;;;;;;5.20;4.10;;;16.30;99.90;;;;;;6217094;23;20446;-91
2021/08/24 10:47:03;;;;;;;4.90;4.40;;;16.40;99.90;;;;;;6157973;23;20421;-91
2021/08/24 10:49:31;;;;;;;4.43;4.03;;;16.40;99.90;;;;;;6065741;23;20499;-93
2021/08/24 10:52:07;;;;;;;4.87;4.33;;;16.50;99.90;;;;;;6138698;23;20741;-91
2021/08/24 10:54:48;;;;;;;4.90;4.50;;;16.40;99.90;;;;;;6157366;23;20447;-91
2021/08/24 10:57:44;;;;;;;5.30;3.90;;;16.40;99.90;;;;;;6154335;23;20397;-93
2021/08/24 11:00:19;;;;;;;5.20;4.70;;;16.20;99.90;;;;;;6158612;23;20472;-92
2021/08/24 11:03:00;;;;;;;4.67;4.27;;;16.10;99.90;;;;;;6149514;23;20396;-93
2021/08/24 11:05:38;;;;;;;5.80;4.53;;;16.50;99.90;;;;;;6149918;23;20423;-92
2021/08/24 11:08:20;;;;;;;5.30;4.80;;;15.80;99.90;;;;;;6162969;23;20892;-92
2021/08/24 11:10:55;;;;;;;4.47;4.07;;;15.80;99.90;;;;;;6148641;23;20463;-93
2021/08/24 11:13:36;;;;;;;6.67;5.50;;;16.20;99.90;;;;;;6157188;23;20412;-92
2021/08/24 11:16:11;;;;;;;6.23;4.63;;;16.40;99.90;;;;;;6159474;23;20569;-91
2021/08/24 11:21:34;;;;;;;5.83;4.83;;;15.80;99.90;;;;;;6174168;23;20404;-91
2021/08/24 11:24:16;;;;;;;6.30;4.93;;;15.70;99.90;;;;;;6168237;23;20481;-95
2021/08/24 11:29:51;;;;;;;4.63;4.23;;;17.10;99.90;;;;;;4646429;27;15062431;-92
2021/08/24 11:32:22;;;;;;;5.00;4.60;;;16.20;99.90;;;;;;5157509;27;20212;-92
2021/08/24 11:34:57;;;;;;;4.90;4.40;;;16.20;99.90;;;;;;5157772;27;20427;-92
2021/08/24 11:37:30;;;;;;;3.30;3.00;;;16.20;99.90;;;;;;5152191;27;20426;-89
2021/08/24 11:39:59;;;;;;;3.30;3.00;;;16.50;99.90;;;;;;5106968;27;20454;-89
2021/08/24 11:42:31;;;;;;;4.53;3.40;;;16.50;99.90;;;;;;5160234;27;20472;-90
2021/08/24 11:45:04;;;;;;;4.43;4.00;;;16.30;99.90;;;;;;5155801;27;20449;-90
2021/08/24 11:47:37;;;;;;;3.63;3.43;;;16.30;99.90;;;;;;5152759;27;20434;-90
2021/08/24 11:50:07;;;;;;;3.43;3.13;;;16.20;99.90;;;;;;5152623;27;20441;-91
2021/08/24 11:52:43;;;;;;;3.30;3.00;;;16.60;99.90;;;;;;5099708;27;20465;-90
2021/08/24 11:55:17;;;;;;;4.23;3.83;;;16.70;99.90;;;;;;5142545;27;20538;-89
2021/08/24 11:57:47;;;;;;;5.20;3.60;;;16.90;99.90;;;;;;5151525;27;20779;-90
2021/08/24 12:00:17;;;;;;;5.23;3.73;;;17.00;99.90;;;;;;5151749;27;20458;-90
2021/08/24 12:02:48;;;;;;;5.30;4.33;;;17.10;99.90;;;;;;5143761;27;20457;-90
2021/08/24 12:05:20;;;;;;;4.67;3.67;;;16.90;99.90;;;;;;5065141;28;20533;-91
2021/08/24 12:07:56;;;;;;;4.40;4.00;;;17.20;99.90;;;;;;5069887;28;20488;-89
2021/08/24 12:10:31;;;;;;;5.03;4.57;;;17.20;99.90;;;;;;5071060;28;20458;-91
2021/08/24 12:13:02;;;;;;;4.13;3.80;;;17.10;99.90;;;;;;5075694;28;20437;-91
2021/08/24 12:15:52;;;;;;;5.17;4.13;;;17.60;99.90;;;;;;5075401;28;20470;-92
2021/08/24 12:18:26;;;;;;;4.57;4.13;;;17.90;99.90;;;;;;5074631;28;20460;-92
2021/08/24 12:21:20;;;;;;;4.50;4.10;;;17.70;99.90;;;;;;5075041;28;20517;-92
2021/08/24 12:23:51;;;;;;;4.80;4.40;;;;;;;;;;5073347;28;20481;-93
2021/08/24 12:26:33;;;;;;;4.33;3.97;;;;;;;;;;5073330;28;20446;-93
2021/08/24 12:29:13;;;;;;;4.60;4.20;;;17.50;99.90;;;;;;5077670;28;20500;-94
2021/08/24 12:31:46;;;;;;;4.30;3.37;;;17.70;99.90;;;;;;5081014;28;20507;-94
2021/08/24 12:34:50;;;;;;;4.33;3.93;;;18.10;99.90;;;;;;5274451;22;20974;-92
2021/08/24 12:37:53;;;;;;;3.90;3.53;;;18.30;99.90;;;;;;5134744;28;20915;-93
2021/08/24 12:40:55;;;;;;;3.93;3.50;;;18.50;99.90;;;;;;5124809;28;20511;-92
2021/08/24 12:43:40;;;;;;;4.13;3.67;;;;;;;;;;5116506;28;20467;-93
2021/08/24 12:46:30;;;;;;;6.67;4.17;;;18.00;99.90;;;;;;5117662;28;20542;-92
2021/08/24 12:49:40;;;;;;;4.47;4.07;;;17.80;99.90;;;;;;5102994;28;20817;-91
2021/08/24 12:52:33;;;;;;;5.17;4.67;;;17.40;99.90;;;;;;5114516;28;20467;-91
2021/08/24 12:55:30;;;;;;;4.90;4.50;;;17.30;99.90;;;;;;5116098;28;20485;-91
2021/08/24 12:58:06;;;;;;;5.87;5.37;;;16.80;99.90;;;;;;5107871;28;20790;-92
2021/08/24 13:00:35;;;;;;;4.60;4.20;;;17.00;99.90;;;;;;5117248;28;20439;-91
2021/08/24 13:03:19;;;;;;;5.47;4.33;;;16.90;99.90;;;;;;5117805;28;20535;-93
2021/08/24 13:05:48;;;;;;;5.83;4.33;;;17.00;99.90;;;;;;5118111;28;20454;-91
2021/08/24 13:08:24;;;;;;;6.07;4.80;;;17.30;99.90;;;;;;5118042;28;20456;-91
2021/08/24 13:10:54;;;;;;;5.07;4.37;;;18.00;99.90;;;;;;5116552;28;20429;-91
2021/08/24 13:14:00;;;;;;;5.00;4.40;;;18.10;99.90;;;;;;5117376;28;20467;-91
2021/08/24 13:16:32;;;;;;;4.37;3.97;;;18.30;99.90;;;;;;5117092;28;20468;-91
2021/08/24 13:18:59;;;;;;;4.70;4.00;;;;;;;;;;5117235;28;20551;-90
2021/08/24 13:21:31;;;;;;;4.60;4.20;;;18.80;99.90;;;;;;5118644;28;20814;-92
2021/08/24 13:24:05;;;;;;;4.93;3.90;;;18.80;99.90;;;;;;5114466;28;20493;-91
2021/08/24 13:26:43;;;;;;;4.57;4.03;;;18.50;99.90;;;;;;5115683;28;20455;-91
2021/08/24 13:29:15;;;;;;;4.63;4.10;;;18.40;99.90;;;;;;5116918;28;20439;-93
2021/08/24 13:31:47;;;;;;;7.13;4.60;;;18.40;99.90;;;;;;5115706;28;20443;-90
2021/08/24 13:34:32;;;;;;;4.37;3.97;;;18.20;99.90;;;;;;5096519;28;20444;-91
2021/08/24 13:36:59;;;;;;;6.70;3.63;;;;;;;;;;5082990;28;20454;-93
2021/08/24 13:39:27;;;;;;;4.83;4.37;;;;;;;;;;5092908;28;20521;-92
2021/08/24 13:41:58;;;;;;;4.77;4.37;;;18.20;99.90;;;;;;5092478;28;20490;-93
2021/08/24 13:44:28;;;;;;;5.00;4.57;;;18.30;99.90;;;;;;5096150;28;20517;-91
2021/08/24 13:47:01;;;;;;;6.93;4.80;;;18.30;99.90;;;;;;5096265;28;20822;-91
2021/08/24 13:49:28;;;;;;;5.57;5.03;;;;;;;;;;5034325;28;20522;-92
2021/08/24 13:51:57;;;;;;;5.10;4.60;;;17.80;99.90;;;;;;5033877;28;20458;-93
2021/08/24 13:54:29;;;;;;;4.83;4.33;;;18.00;99.90;;;;;;5031694;28;20448;-93
2021/08/24 13:56:56;;;;;;;4.40;4.00;;;;;;;;;;5029564;28;20435;-94
2021/08/24 13:59:26;;;;;;;5.00;4.50;;;18.20;99.90;;;;;;5035635;28;20494;-94
2021/08/24 14:01:56;;;;;;;4.77;4.37;;;18.10;99.90;;;;;;5032246;28;20448;-94